sensor_id;sensor_type;location;lat;lon;timestamp;temperature;humidity
16968;DHT22;64862;54.398;10.126;2024-01-15T00:09:03;3.00;99.90
16968;DHT22;64862;54.398;10.126;2024-01-15T00:19:08;2.80;99.90
16968;DHT22;64862;54.398;10.126;2024-01-15T00:29:10;2.40;99.90
16968;DHT22;64862;54.398;10.126;2024-01-15T00:39:13;2.40;99.90
16968;DHT22;64862;54.398;10.126;2024-01-15T00:49:17;2.40;99.90
16968;DHT22;64862;54.398;10.126;2024-01-15T00:59:20;2.50;99.90
16968;DHT22;64862;54.398;10.126;2024-01-15T01:09:22;2.60;99.90
16968;DHT22;64862;54.398;10.126;2024-01-15T01:19:26;2.70;99.90
16968;DHT22;64862;54.398;10.126;2024-01-15T01:29:28;2.90;99.90
16968;DHT22;64862;54.398;10.126;2024-01-15T01:39:31;2.90;99.90
16968;DHT22;64862;54.398;10.126;2024-01-15T01:49:34;3.00;99.90
16968;DHT22;64862;54.398;10.126;2024-01-15T01:59:38;2.90;99.90
16968;DHT22;64862;54.398;10.126;2024-01-15T02:09:41;2.90;99.90
16968;DHT22;64862;54.398;10.126;2024-01-15T02:19:44;2.90;99.90
16968;DHT22;64862;54.398;10.126;2024-01-15T02:29:48;2.90;99.90
16968;DHT22;64862;54.398;10.126;2024-01-15T02:39:50;2.90;99.90
16968;DHT22;64862;54.398;10.126;2024-01-15T02:49:53;2.80;99.90
16968;DHT22;64862;54.398;10.126;2024-01-15T02:59:55;2.90;99.90
16968;DHT22;64862;54.398;10.126;2024-01-15T03:09:59;2.90;99.90
16968;DHT22;64862;54.398;10.126;2024-01-15T03:20:01;2.90;99.90
16968;DHT22;64862;54.398;10.126;2024-01-15T03:30:06;2.90;99.90
16968;DHT22;64862;54.398;10.126;2024-01-15T03:40:09;2.80;99.90
16968;DHT22;64862;54.398;10.126;2024-01-15T03:50:13;2.80;99.90
16968;DHT22;64862;54.398;10.126;2024-01-15T04:00:15;2.90;99.90
16968;DHT22;64862;54.398;10.126;2024-01-15T04:10:19;3.00;99.90
16968;DHT22;64862;54.398;10.126;2024-01-15T04:20:21;3.00;99.90
16968;DHT22;64862;54.398;10.126;2024-01-15T04:30:24;3.10;99.90
16968;DHT22;64862;54.398;10.126;2024-01-15T04:40:26;3.10;99.90
16968;DHT22;64862;54.398;10.126;2024-01-15T04:50:30;3.10;99.90
16968;DHT22;64862;54.398;10.126;2024-01-15T05:00:32;3.10;99.90
16968;DHT22;64862;54.398;10.126;2024-01-15T05:10:35;3.10;99.90
16968;DHT22;64862;54.398;10.126;2024-01-15T05:20:37;3.20;99.90
16968;DHT22;64862;54.398;10.126;2024-01-15T05:30:41;3.20;99.90
16968;DHT22;64862;54.398;10.126;2024-01-15T05:40:43;3.20;99.90
16968;DHT22;64862;54.398;10.126;2024-01-15T05:50:46;3.20;99.90
16968;DHT22;64862;54.398;10.126;2024-01-15T06:00:48;3.00;99.90
16968;DHT22;64862;54.398;10.126;2024-01-15T06:10:52;3.00;99.90
16968;DHT22;64862;54.398;10.126;2024-01-15T06:20:54;2.90;99.90
16968;DHT22;64862;54.398;10.126;2024-01-15T06:30:57;3.00;99.90
16968;DHT22;64862;54.398;10.126;2024-01-15T06:41:00;3.50;99.90
16968;DHT22;64862;54.398;10.126;2024-01-15T06:51:03;3.40;99.90
16968;DHT22;64862;54.398;10.126;2024-01-15T07:01:06;3.20;99.90
16968;DHT22;64862;54.398;10.126;2024-01-15T07:11:09;3.20;99.90
16968;DHT22;64862;54.398;10.126;2024-01-15T07:21:11;3.10;99.90
16968;DHT22;64862;54.398;10.126;2024-01-15T07:31:17;3.00;99.90
16968;DHT22;64862;54.398;10.126;2024-01-15T07:41:19;3.10;99.90
16968;DHT22;64862;54.398;10.126;2024-01-15T07:51:23;3.10;99.90
16968;DHT22;64862;54.398;10.126;2024-01-15T08:01:25;2.80;99.90
16968;DHT22;64862;54.398;10.126;2024-01-15T08:11:28;2.60;99.90
16968;DHT22;64862;54.398;10.126;2024-01-15T08:21:31;2.50;99.90
16968;DHT22;64862;54.398;10.126;2024-01-15T08:31:34;2.50;99.90
16968;DHT22;64862;54.398;10.126;2024-01-15T08:41:36;2.40;99.90
16968;DHT22;64862;54.398;10.126;2024-01-15T08:51:39;2.40;99.90
16968;DHT22;64862;54.398;10.126;2024-01-15T09:01:41;2.30;99.90
16968;DHT22;64862;54.398;10.126;2024-01-15T09:11:45;2.40;99.90
16968;DHT22;64862;54.398;10.126;2024-01-15T09:21:47;2.40;99.90
16968;DHT22;64862;54.398;10.126;2024-01-15T09:31:50;2.30;99.90
16968;DHT22;64862;54.398;10.126;2024-01-15T09:41:52;2.40;99.90
16968;DHT22;64862;54.398;10.126;2024-01-15T09:51:57;2.40;99.90
16968;DHT22;64862;54.398;10.126;2024-01-15T10:02:01;2.50;99.90
16968;DHT22;64862;54.398;10.126;2024-01-15T10:12:06;2.60;99.90
16968;DHT22;64862;54.398;10.126;2024-01-15T10:22:08;2.60;99.90
16968;DHT22;64862;54.398;10.126;2024-01-15T10:32:12;2.50;99.90
16968;DHT22;64862;54.398;10.126;2024-01-15T10:42:14;2.70;99.90
16968;DHT22;64862;54.398;10.126;2024-01-15T10:52:18;2.60;99.90
16968;DHT22;64862;54.398;10.126;2024-01-15T11:02:20;2.70;99.90
16968;DHT22;64862;54.398;10.126;2024-01-15T11:12:24;2.70;99.50
16968;DHT22;64862;54.398;10.126;2024-01-15T11:22:48;2.70;99.20
16968;DHT22;64862;54.398;10.126;2024-01-15T11:32:51;2.70;98.80
16968;DHT22;64862;54.398;10.126;2024-01-15T11:42:53;2.60;98.60
16968;DHT22;64862;54.398;10.126;2024-01-15T11:53:00;2.60;99.30
16968;DHT22;64862;54.398;10.126;2024-01-15T12:03:05;2.60;99.50
16968;DHT22;64862;54.398;10.126;2024-01-15T12:13:10;2.40;98.80
16968;DHT22;64862;54.398;10.126;2024-01-15T12:23:13;2.50;99.30
16968;DHT22;64862;54.398;10.126;2024-01-15T12:33:17;2.60;99.20
16968;DHT22;64862;54.398;10.126;2024-01-15T12:43:20;2.50;99.20
16968;DHT22;64862;54.398;10.126;2024-01-15T12:53:23;2.60;99.40
16968;DHT22;64862;54.398;10.126;2024-01-15T13:03:25;2.60;99.60
16968;DHT22;64862;54.398;10.126;2024-01-15T13:13:28;2.70;99.60
16968;DHT22;64862;54.398;10.126;2024-01-15T13:23:31;2.80;99.50
16968;DHT22;64862;54.398;10.126;2024-01-15T13:33:34;2.70;99.10
16968;DHT22;64862;54.398;10.126;2024-01-15T13:43:36;2.70;98.40
16968;DHT22;64862;54.398;10.126;2024-01-15T13:53:39;2.80;99.60
16968;DHT22;64862;54.398;10.126;2024-01-15T14:03:41;2.70;99.20
16968;DHT22;64862;54.398;10.126;2024-01-15T14:13:45;2.60;99.30
16968;DHT22;64862;54.398;10.126;2024-01-15T14:23:48;2.50;99.30
16968;DHT22;64862;54.398;10.126;2024-01-15T14:33:51;2.50;98.90
16968;DHT22;64862;54.398;10.126;2024-01-15T14:43:53;2.60;98.50
16968;DHT22;64862;54.398;10.126;2024-01-15T14:53:56;2.70;99.00
16968;DHT22;64862;54.398;10.126;2024-01-15T15:03:58;2.60;99.10
16968;DHT22;64862;54.398;10.126;2024-01-15T15:14:02;2.60;99.50
16968;DHT22;64862;54.398;10.126;2024-01-15T15:24:05;2.50;99.50
16968;DHT22;64862;54.398;10.126;2024-01-15T15:34:08;2.40;99.80
16968;DHT22;64862;54.398;10.126;2024-01-15T15:44:10;2.00;99.90
16968;DHT22;64862;54.398;10.126;2024-01-15T15:54:15;2.00;99.90
16968;DHT22;64862;54.398;10.126;2024-01-15T16:04:17;1.80;99.90
16968;DHT22;64862;54.398;10.126;2024-01-15T16:14:20;1.70;99.90
16968;DHT22;64862;54.398;10.126;2024-01-15T16:24:22;1.70;99.90
16968;DHT22;64862;54.398;10.126;2024-01-15T16:34:27;1.40;99.90
16968;DHT22;64862;54.398;10.126;2024-01-15T16:44:30;1.60;99.90
16968;DHT22;64862;54.398;10.126;2024-01-15T16:54:34;1.60;99.90
16968;DHT22;64862;54.398;10.126;2024-01-15T17:04:36;1.70;99.90
16968;DHT22;64862;54.398;10.126;2024-01-15T17:14:39;1.90;99.90
16968;DHT22;64862;54.398;10.126;2024-01-15T17:24:41;1.90;99.90
16968;DHT22;64862;54.398;10.126;2024-01-15T17:34:45;2.30;99.90
16968;DHT22;64862;54.398;10.126;2024-01-15T17:44:47;2.50;99.90
16968;DHT22;64862;54.398;10.126;2024-01-15T17:54:50;2.30;99.90
16968;DHT22;64862;54.398;10.126;2024-01-15T18:04:53;2.30;99.90
16968;DHT22;64862;54.398;10.126;2024-01-15T18:14:57;2.50;99.90
16968;DHT22;64862;54.398;10.126;2024-01-15T18:24:59;2.20;99.90
16968;DHT22;64862;54.398;10.126;2024-01-15T18:35:04;2.10;99.90
16968;DHT22;64862;54.398;10.126;2024-01-15T18:45:07;1.90;99.90
16968;DHT22;64862;54.398;10.126;2024-01-15T18:55:10;1.90;99.90
16968;DHT22;64862;54.398;10.126;2024-01-15T19:05:15;1.80;99.90
16968;DHT22;64862;54.398;10.126;2024-01-15T19:15:19;1.80;99.90
16968;DHT22;64862;54.398;10.126;2024-01-15T19:25:21;1.90;99.90
16968;DHT22;64862;54.398;10.126;2024-01-15T19:35:26;1.80;99.90
16968;DHT22;64862;54.398;10.126;2024-01-15T19:45:29;1.80;99.90
16968;DHT22;64862;54.398;10.126;2024-01-15T19:55:32;1.70;99.90
16968;DHT22;64862;54.398;10.126;2024-01-15T20:05:34;1.70;99.90
16968;DHT22;64862;54.398;10.126;2024-01-15T20:15:37;1.50;99.90
16968;DHT22;64862;54.398;10.126;2024-01-15T20:25:39;1.40;99.90
16968;DHT22;64862;54.398;10.126;2024-01-15T20:35:43;1.20;99.90
16968;DHT22;64862;54.398;10.126;2024-01-15T20:45:47;0.90;99.90
16968;DHT22;64862;54.398;10.126;2024-01-15T20:55:51;0.50;99.90
16968;DHT22;64862;54.398;10.126;2024-01-15T21:05:53;0.60;99.90
16968;DHT22;64862;54.398;10.126;2024-01-15T21:15:58;0.30;99.90
16968;DHT22;64862;54.398;10.126;2024-01-15T21:26:00;0.60;99.90
16968;DHT22;64862;54.398;10.126;2024-01-15T21:36:05;0.70;99.90
16968;DHT22;64862;54.398;10.126;2024-01-15T21:46:10;0.60;99.90
16968;DHT22;64862;54.398;10.126;2024-01-15T21:56:14;0.20;99.90
16968;DHT22;64862;54.398;10.126;2024-01-15T22:06:17;0.10;99.90
16968;DHT22;64862;54.398;10.126;2024-01-15T22:16:21;-0.10;99.90
16968;DHT22;64862;54.398;10.126;2024-01-15T22:26:25;-0.20;99.90
16968;DHT22;64862;54.398;10.126;2024-01-15T22:36:29;0.30;99.90
16968;DHT22;64862;54.398;10.126;2024-01-15T22:46:32;0.80;99.90
16968;DHT22;64862;54.398;10.126;2024-01-15T22:56:35;0.70;99.90
16968;DHT22;64862;54.398;10.126;2024-01-15T23:06:37;0.60;99.90
16968;DHT22;64862;54.398;10.126;2024-01-15T23:16:40;0.60;99.90
16968;DHT22;64862;54.398;10.126;2024-01-15T23:26:43;0.70;99.90
16968;DHT22;64862;54.398;10.126;2024-01-15T23:36:46;0.70;99.90
16968;DHT22;64862;54.398;10.126;2024-01-15T23:46:48;0.40;99.90
16968;DHT22;64862;54.398;10.126;2024-01-15T23:56:51;-0.20;99.90
